createdAt,value
2022-11-09T00:01:49.468Z,23.83
2022-11-09T00:04:51.356Z,24.00
2022-11-09T00:07:53.475Z,23.57
2022-11-09T00:10:55.599Z,25.50
2022-11-09T00:13:57.748Z,23.00
2022-11-09T00:17:00.025Z,26.93
2022-11-09T00:20:02.217Z,22.37
2022-11-09T00:23:04.098Z,25.10
2022-11-09T00:26:08.309Z,26.70
2022-11-09T00:29:10.189Z,26.03
2022-11-09T00:32:12.533Z,28.57
2022-11-09T00:35:14.491Z,27.10
2022-11-09T00:38:16.682Z,25.93
2022-11-09T00:41:19.312Z,26.10
2022-11-09T00:44:21.691Z,27.23
2022-11-09T00:47:23.612Z,27.20
2022-11-09T00:50:25.837Z,23.67
2022-11-09T00:53:28.074Z,30.23
2022-11-09T00:56:30.208Z,24.97
2022-11-09T00:59:32.060Z,28.53
2022-11-09T01:02:34.530Z,23.53
2022-11-09T01:05:39.551Z,24.93
2022-11-09T01:08:41.825Z,24.43
2022-11-09T01:11:43.769Z,25.43
2022-11-09T01:14:45.986Z,25.57
2022-11-09T01:17:47.927Z,25.00
2022-11-09T01:20:51.122Z,27.23
2022-11-09T01:23:53.222Z,27.73
2022-11-09T01:26:55.373Z,26.07
2022-11-09T01:29:57.216Z,24.97
2022-11-09T01:32:59.442Z,25.43
2022-11-09T01:36:13.765Z,28.13
2022-11-09T01:39:15.910Z,25.07
2022-11-09T01:42:26.377Z,24.60
2022-11-09T01:45:30.342Z,25.50
2022-11-09T01:48:58.683Z,25.70
2022-11-09T01:52:14.174Z,27.10
2022-11-09T01:55:20.003Z,25.13
2022-11-09T01:58:28.763Z,26.83
2022-11-09T02:01:33.062Z,26.70
2022-11-09T02:04:46.498Z,25.03
2022-11-09T02:07:50.109Z,27.33
2022-11-09T02:11:01.693Z,27.23
2022-11-09T02:14:04.394Z,26.27
2022-11-09T02:17:07.705Z,27.43
2022-11-09T02:20:16.652Z,25.57
2022-11-09T02:23:20.147Z,24.83
2022-11-09T02:26:33.772Z,26.00
2022-11-09T02:29:40.560Z,27.13
2022-11-09T02:32:42.594Z,26.03
2022-11-09T02:35:44.843Z,26.67
2022-11-09T02:38:46.813Z,28.03
2022-11-09T02:42:01.459Z,26.63
2022-11-09T02:45:05.029Z,29.20
2022-11-09T02:48:07.288Z,28.97
2022-11-09T02:51:09.226Z,26.47
2022-11-09T02:54:12.747Z,29.87
2022-11-09T02:57:14.725Z,31.03
2022-11-09T03:00:24.073Z,28.37
2022-11-09T03:03:26.037Z,26.57
2022-11-09T03:06:34.651Z,27.07
2022-11-09T03:09:36.810Z,30.13
2022-11-09T03:12:39.013Z,32.37
2022-11-09T03:15:44.036Z,27.63
2022-11-09T03:18:46.173Z,26.60
2022-11-09T03:21:48.033Z,27.07
2022-11-09T03:24:50.293Z,29.13
2022-11-09T03:27:58.004Z,28.73
2022-11-09T03:31:00.229Z,28.87
2022-11-09T03:34:02.216Z,24.93
2022-11-09T03:37:04.373Z,23.67
2022-11-09T03:40:06.964Z,25.37
2022-11-09T03:43:09.321Z,26.20
2022-11-09T03:46:11.233Z,26.77
2022-11-09T03:49:13.498Z,25.07
2022-11-09T03:52:17.867Z,26.30
2022-11-09T03:55:20.108Z,25.07
2022-11-09T03:58:21.958Z,24.93
2022-11-09T04:01:24.336Z,26.20
2022-11-09T04:04:26.278Z,24.73
2022-11-09T04:07:28.475Z,22.60
2022-11-09T04:10:30.345Z,25.23
2022-11-09T04:13:32.602Z,27.53
2022-11-09T04:16:34.655Z,27.77
2022-11-09T04:19:36.884Z,25.43
2022-11-09T04:22:41.745Z,26.53
2022-11-09T04:25:43.914Z,23.90
2022-11-09T04:28:45.840Z,22.90
2022-11-09T04:31:51.737Z,26.40
2022-11-09T04:34:53.744Z,25.00
2022-11-09T04:38:06.789Z,25.27
2022-11-09T04:41:08.819Z,27.17
2022-11-09T04:44:10.966Z,27.27
2022-11-09T04:47:12.932Z,23.40
2022-11-09T04:50:15.288Z,25.47
2022-11-09T04:53:19.733Z,27.37
2022-11-09T04:56:22.315Z,28.33
2022-11-09T04:59:24.237Z,27.67
2022-11-09T05:02:27.634Z,27.03
2022-11-09T05:05:30.061Z,28.17
2022-11-09T05:08:35.290Z,27.97
2022-11-09T05:11:37.544Z,23.87
2022-11-09T05:14:39.707Z,25.90
2022-11-09T05:17:41.653Z,26.30
2022-11-09T05:20:43.806Z,26.70
2022-11-09T05:24:01.551Z,25.43
2022-11-09T05:27:05.039Z,29.60
2022-11-09T05:30:07.731Z,30.73
2022-11-09T05:33:11.269Z,28.20
2022-11-09T05:36:13.153Z,36.00
2022-11-09T05:39:15.287Z,29.60
2022-11-09T05:42:18.374Z,26.77
2022-11-09T05:45:41.632Z,26.23
2022-11-09T05:48:43.839Z,32.37
2022-11-09T05:51:48.532Z,26.63
2022-11-09T05:54:50.384Z,25.63
2022-11-09T05:57:54.546Z,26.90
2022-11-09T06:00:56.705Z,30.63
2022-11-09T06:03:58.914Z,28.50
2022-11-09T06:07:01.039Z,31.43
2022-11-09T06:10:04.645Z,29.43
2022-11-09T06:13:06.914Z,32.77
2022-11-09T06:16:10.272Z,32.77
2022-11-09T06:19:13.160Z,31.87
2022-11-09T06:22:15.703Z,30.33
2022-11-09T06:25:17.587Z,27.77
2022-11-09T06:28:20.312Z,30.77
2022-11-09T06:31:22.475Z,30.93
2022-11-09T06:34:24.914Z,29.80
2022-11-09T06:37:26.848Z,28.73
2022-11-09T06:40:29.719Z,30.43
2022-11-09T06:43:31.665Z,29.80
2022-11-09T06:46:34.186Z,28.87
2022-11-09T06:49:36.059Z,33.00
2022-11-09T06:52:39.789Z,26.93
2022-11-09T06:55:48.815Z,31.30
2022-11-09T06:58:52.890Z,41.30
2022-11-09T07:02:00.173Z,53.07
2022-11-09T07:05:03.695Z,34.90
2022-11-09T07:08:05.969Z,34.33
2022-11-09T07:11:13.391Z,38.60
2022-11-09T07:14:15.287Z,42.90
2022-11-09T07:17:18.248Z,38.20
2022-11-09T07:20:22.388Z,33.13
2022-11-09T07:23:24.997Z,31.27
2022-11-09T07:26:27.466Z,32.00
2022-11-09T07:29:29.666Z,31.57
2022-11-09T07:33:02.496Z,29.43
2022-11-09T07:35:59.551Z,28.20
2022-11-09T07:39:04.343Z,29.70
2022-11-09T07:42:09.355Z,31.33
2022-11-09T07:45:11.984Z,31.27
2022-11-09T07:48:14.271Z,32.83
2022-11-09T07:51:18.711Z,36.27
2022-11-09T07:54:28.803Z,33.43
2022-11-09T07:57:33.955Z,31.67
2022-11-09T08:00:38.227Z,34.15
2022-11-09T08:03:40.122Z,33.00
2022-11-09T08:06:42.723Z,33.63
2022-11-09T08:09:44.811Z,31.97
2022-11-09T08:12:53.887Z,34.47
2022-11-09T08:16:27.876Z,30.67
2022-11-09T08:19:30.127Z,32.67
2022-11-09T08:22:32.052Z,29.87
2022-11-09T08:25:37.914Z,31.27
2022-11-09T08:28:39.836Z,27.60
2022-11-09T08:31:42.184Z,29.30
2022-11-09T08:34:48.304Z,32.33
2022-11-09T08:37:52.345Z,30.77
2022-11-09T08:40:58.728Z,28.65
2022-11-09T08:44:01.006Z,30.40
2022-11-09T08:47:03.047Z,28.10
2022-11-09T08:50:08.835Z,27.40
2022-11-09T08:53:11.050Z,26.90
2022-11-09T08:56:13.346Z,25.92
2022-11-09T08:59:18.175Z,25.70
2022-11-09T09:02:23.724Z,28.42
2022-11-09T09:05:26.690Z,26.90
2022-11-09T09:08:29.439Z,30.27
2022-11-09T09:11:31.437Z,28.33
2022-11-09T09:14:34.191Z,25.83
2022-11-09T09:17:36.101Z,27.40
2022-11-09T09:20:38.287Z,25.65
2022-11-09T09:23:40.296Z,29.50
2022-11-09T09:26:43.992Z,30.05
2022-11-09T09:29:46.100Z,72.95
2022-11-09T09:32:48.315Z,54.28
2022-11-09T09:35:54.627Z,27.35
2022-11-09T09:38:56.859Z,25.35
2022-11-09T09:42:02.423Z,26.98
2022-11-09T09:45:27.035Z,26.45
2022-11-09T09:48:50.647Z,25.30
2022-11-09T09:52:00.087Z,52.50
2022-11-09T09:55:12.795Z,34.70
2022-11-09T09:58:23.714Z,42.63
2022-11-09T10:01:40.861Z,29.85
2022-11-09T10:04:43.398Z,31.38
2022-11-09T10:08:07.128Z,28.50
2022-11-09T10:11:16.768Z,27.48
2022-11-09T10:14:32.645Z,30.23
2022-11-09T10:18:14.461Z,27.50
2022-11-09T10:21:38.100Z,29.70
2022-11-09T10:25:31.999Z,24.52
2022-11-09T10:28:42.394Z,26.92
2022-11-09T10:31:57.652Z,24.95
2022-11-09T10:35:17.218Z,25.50
2022-11-09T10:38:26.050Z,26.00
2022-11-09T10:41:48.489Z,26.40
2022-11-09T10:44:50.738Z,24.42
2022-11-09T10:47:52.998Z,27.08
2022-11-09T10:50:55.328Z,27.40
2022-11-09T10:54:26.488Z,23.60
2022-11-09T10:57:28.606Z,25.02
2022-11-09T11:00:30.614Z,20.83
2022-11-09T11:03:36.655Z,21.10
2022-11-09T11:06:38.622Z,19.92
2022-11-09T11:09:42.395Z,23.13
2022-11-09T11:12:57.510Z,19.65
2022-11-09T11:15:59.733Z,17.55
2022-11-09T11:19:02.721Z,19.77
2022-11-09T11:22:14.487Z,22.02
2022-11-09T11:25:24.963Z,19.77
2022-11-09T11:28:57.274Z,22.70
2022-11-09T11:31:59.157Z,18.50
2022-11-09T11:35:07.146Z,24.33
2022-11-09T11:38:25.381Z,25.08
2022-11-09T11:41:36.456Z,21.33
2022-11-09T11:45:25.627Z,19.65
2022-11-09T11:48:46.231Z,21.80
2022-11-09T11:52:14.696Z,25.40
2022-11-09T11:55:29.686Z,20.58
2022-11-09T11:58:59.379Z,18.73
2022-11-09T12:02:27.115Z,23.42
2022-11-09T12:05:48.087Z,23.00
2022-11-09T12:09:16.889Z,25.63
2022-11-09T12:12:41.535Z,21.63
2022-11-09T12:16:08.582Z,19.98
2022-11-09T12:19:46.151Z,24.25
2022-11-09T12:23:00.653Z,21.17
2022-11-09T12:26:33.609Z,21.10
2022-11-09T12:30:00.461Z,23.33
2022-11-09T12:33:33.493Z,22.40
2022-11-09T12:37:01.366Z,32.00
2022-11-09T12:40:26.443Z,20.35
2022-11-09T12:43:41.855Z,21.42
2022-11-09T12:46:51.321Z,21.48
2022-11-09T12:49:55.968Z,23.55
2022-11-09T12:53:00.261Z,25.35
2022-11-09T12:56:05.191Z,49.00
2022-11-09T12:59:29.236Z,32.75
2022-11-09T13:02:55.258Z,23.73
2022-11-09T13:06:09.604Z,24.00
2022-11-09T13:09:25.908Z,21.83
2022-11-09T13:12:35.271Z,24.13
2022-11-09T13:16:10.192Z,21.25
2022-11-09T13:19:34.759Z,36.20
2022-11-09T13:22:42.647Z,41.80
2022-11-09T13:25:53.156Z,27.45
2022-11-09T13:29:26.168Z,22.88
2022-11-09T13:32:33.452Z,23.65
2022-11-09T13:35:56.268Z,23.00
2022-11-09T13:39:24.046Z,24.48
2022-11-09T13:42:35.931Z,26.63
2022-11-09T13:45:53.627Z,30.30
2022-11-09T13:48:56.136Z,29.50
2022-11-09T13:51:58.003Z,26.63
2022-11-09T13:55:00.483Z,31.08
2022-11-09T13:58:29.945Z,30.45
2022-11-09T14:01:46.331Z,25.35
2022-11-09T14:04:48.660Z,30.92
2022-11-09T14:07:50.850Z,26.17
2022-11-09T14:10:52.832Z,23.92
2022-11-09T14:14:22.656Z,25.67
2022-11-09T14:17:52.691Z,24.70
2022-11-09T14:21:08.491Z,26.55
2022-11-09T14:24:20.158Z,25.25
2022-11-09T14:27:23.405Z,27.17
2022-11-09T14:30:28.605Z,25.73
2022-11-09T14:33:34.883Z,26.10
2022-11-09T14:36:40.645Z,23.88
2022-11-09T14:39:49.193Z,25.05
2022-11-09T14:43:13.997Z,23.45
2022-11-09T14:46:20.027Z,27.10
2022-11-09T14:49:24.484Z,22.85
2022-11-09T14:52:29.188Z,22.75
2022-11-09T14:55:41.382Z,25.30
2022-11-09T14:58:47.636Z,24.52
2022-11-09T15:02:05.764Z,25.88
2022-11-09T15:05:08.133Z,31.55
2022-11-09T15:08:22.516Z,36.65
2022-11-09T15:11:39.232Z,30.90
2022-11-09T15:14:41.682Z,31.50
2022-11-09T15:17:46.637Z,34.53
2022-11-09T15:20:48.583Z,32.95
2022-11-09T15:24:08.691Z,31.73
2022-11-09T15:27:31.409Z,34.70
2022-11-09T15:30:46.137Z,32.30
2022-11-09T15:33:53.866Z,33.97
2022-11-09T15:36:56.309Z,31.90
2022-11-09T15:39:59.256Z,34.25
2022-11-09T15:43:02.821Z,35.13
2022-11-09T15:46:05.261Z,35.63
2022-11-09T15:49:15.517Z,36.47
2022-11-09T15:52:18.830Z,35.10
2022-11-09T15:55:28.090Z,35.10
2022-11-09T15:58:32.173Z,32.57
2022-11-09T16:01:34.426Z,32.93
2022-11-09T16:04:36.394Z,34.67
2022-11-09T16:07:46.781Z,37.57
2022-11-09T16:10:48.728Z,35.63
2022-11-09T16:13:50.893Z,39.17
2022-11-09T16:16:52.787Z,44.03
2022-11-09T16:19:55.036Z,40.72
2022-11-09T16:22:57.064Z,39.42
2022-11-09T16:25:59.719Z,42.28
2022-11-09T16:29:01.703Z,40.97
2022-11-09T16:32:07.309Z,40.63
2022-11-09T16:38:39.030Z,44.67
2022-11-09T16:41:42.014Z,48.03
2022-11-09T16:44:46.833Z,48.37
2022-11-09T16:47:52.810Z,47.43
2022-11-09T16:50:55.393Z,47.73
2022-11-09T16:53:57.437Z,49.37
2022-11-09T16:57:00.198Z,48.55
2022-11-09T17:00:02.284Z,50.23
2022-11-09T17:03:04.837Z,49.60
2022-11-09T17:06:11.084Z,43.37
2022-11-09T17:09:24.837Z,55.77
2022-11-09T17:12:26.715Z,49.37
2022-11-09T17:15:29.310Z,48.23
2022-11-09T17:18:31.515Z,49.97
2022-11-09T17:21:36.544Z,46.50
2022-11-09T17:24:38.522Z,53.97
2022-11-09T17:27:40.752Z,55.77
2022-11-09T17:30:42.671Z,60.80
2022-11-09T17:33:45.693Z,64.20
2022-11-09T17:37:03.777Z,57.53
2022-11-09T17:40:07.668Z,56.70
2022-11-09T17:43:09.593Z,55.47
2022-11-09T17:46:14.790Z,58.67
2022-11-09T17:49:16.879Z,65.57
2022-11-09T17:52:19.085Z,58.80
2022-11-09T17:55:21.071Z,58.20
2022-11-09T17:58:23.890Z,55.93
2022-11-09T18:01:25.891Z,58.97
2022-11-09T18:04:28.223Z,61.23
2022-11-09T18:07:31.167Z,59.00
2022-11-09T18:10:33.385Z,57.87
2022-11-09T18:13:35.463Z,60.23
2022-11-09T18:16:37.780Z,57.60
2022-11-09T18:19:39.697Z,51.20
2022-11-09T18:22:41.837Z,53.30
2022-11-09T18:25:44.314Z,53.37
2022-11-09T18:28:46.915Z,50.60
2022-11-09T18:31:49.556Z,47.00
2022-11-09T18:34:51.772Z,49.90
2022-11-09T18:37:53.756Z,50.63
2022-11-09T18:41:07.449Z,54.60
2022-11-09T18:44:10.237Z,49.43
2022-11-09T18:47:13.774Z,46.10
2022-11-09T18:50:17.280Z,52.93
2022-11-09T18:53:21.559Z,53.13
2022-11-09T18:56:25.451Z,49.17
2022-11-09T18:59:27.645Z,54.73
2022-11-09T19:02:29.620Z,52.67
2022-11-09T19:05:32.145Z,54.83
2022-11-09T19:08:52.859Z,56.93
2022-11-09T19:11:59.090Z,53.57
2022-11-09T19:15:02.102Z,51.00
2022-11-09T19:18:05.895Z,50.77
2022-11-09T19:21:47.853Z,52.03
2022-11-09T19:24:50.062Z,51.97
2022-11-09T19:27:51.950Z,50.97
2022-11-09T19:30:58.570Z,48.50
2022-11-09T19:34:00.859Z,50.20
2022-11-09T19:37:03.057Z,49.03
2022-11-09T19:40:05.521Z,51.90
2022-11-09T19:43:07.695Z,49.97
2022-11-09T19:46:09.680Z,52.70
2022-11-09T19:49:12.142Z,47.27
2022-11-09T19:52:14.111Z,57.30
2022-11-09T19:55:16.329Z,54.10
2022-11-09T19:58:21.424Z,59.37
2022-11-09T20:01:24.169Z,60.20
2022-11-09T20:04:26.658Z,60.83
2022-11-09T20:07:31.562Z,52.87
2022-11-09T20:10:37.414Z,55.43
2022-11-09T20:13:40.614Z,53.77
2022-11-09T20:16:44.444Z,57.80
2022-11-09T20:19:46.640Z,58.30
2022-11-09T20:22:49.782Z,58.47
2022-11-09T20:25:52.800Z,58.30
2022-11-09T20:28:55.527Z,55.30
2022-11-09T20:31:57.764Z,50.93
2022-11-09T20:35:00.350Z,56.23
2022-11-09T20:38:02.784Z,51.10
2022-11-09T20:41:10.800Z,49.50
2022-11-09T20:44:13.593Z,50.80
2022-11-09T20:47:30.133Z,53.03
2022-11-09T20:50:39.271Z,50.00
2022-11-09T20:53:41.195Z,53.90
2022-11-09T20:56:44.271Z,55.00
2022-11-09T20:59:46.154Z,60.97
2022-11-09T21:02:48.917Z,56.83
2022-11-09T21:05:58.943Z,57.13
2022-11-09T21:09:06.222Z,60.10
2022-11-09T21:12:24.950Z,74.97
2022-11-09T21:15:27.419Z,62.23
2022-11-09T21:18:29.386Z,58.23
2022-11-09T21:21:36.564Z,53.40
2022-11-09T21:24:57.267Z,52.87
2022-11-09T21:28:18.313Z,55.47
2022-11-09T21:31:20.263Z,55.83
2022-11-09T21:34:24.709Z,56.30
2022-11-09T21:37:26.619Z,56.13
2022-11-09T21:40:28.901Z,56.23
2022-11-09T21:43:30.963Z,55.90
2022-11-09T21:46:33.634Z,56.30
2022-11-09T21:49:35.621Z,55.87
2022-11-09T21:52:40.176Z,52.90
2022-11-09T21:55:43.085Z,53.67
2022-11-09T21:58:49.355Z,52.00
2022-11-09T22:01:52.143Z,57.70
2022-11-09T22:04:54.408Z,53.40
2022-11-09T22:07:56.359Z,53.13
2022-11-09T22:11:12.015Z,60.30
2022-11-09T22:14:37.479Z,49.87
2022-11-09T22:17:39.625Z,56.20
2022-11-09T22:20:57.333Z,55.23
2022-11-09T22:24:00.839Z,54.23
2022-11-09T22:27:04.037Z,53.30
2022-11-09T22:30:06.971Z,55.03
2022-11-09T22:33:08.926Z,50.50
2022-11-09T22:36:13.029Z,55.70
2022-11-09T22:39:14.894Z,49.57
2022-11-09T22:42:17.035Z,53.20
2022-11-09T22:45:19.121Z,53.63
2022-11-09T22:48:22.632Z,55.23
2022-11-09T22:51:24.762Z,50.00
2022-11-09T22:54:28.153Z,46.80
2022-11-09T22:57:32.893Z,46.33
2022-11-09T23:00:35.088Z,44.43
2022-11-09T23:03:37.072Z,44.67
2022-11-09T23:06:39.341Z,39.80
2022-11-09T23:09:41.270Z,48.37
2022-11-09T23:12:43.412Z,43.93
2022-11-09T23:15:58.666Z,46.77
2022-11-09T23:19:00.807Z,45.13
2022-11-09T23:22:06.920Z,41.67
2022-11-09T23:25:35.699Z,43.47
2022-11-09T23:28:38.256Z,42.30
2022-11-09T23:31:40.564Z,44.63
2022-11-09T23:34:42.468Z,44.63
2022-11-09T23:37:44.870Z,43.93
2022-11-09T23:40:47.138Z,40.40
2022-11-09T23:43:50.118Z,42.80
2022-11-09T23:46:52.262Z,42.73
2022-11-09T23:49:54.429Z,44.00
2022-11-09T23:53:00.737Z,43.20
2022-11-09T23:56:08.804Z,47.40
2022-11-09T23:59:10.696Z,40.40
